Time;durP1;ratioP1;P1;durP2;ratioP2;P2;SDS_P1;SDS_P2;PMS_P1;PMS_P2;Temp;Humidity;BMP_temperature;BMP_pressure;BME280_temperature;BME280_humidity;BME280_pressure;Samples;Min_cycle;Max_cycle;Signal;HPM_P1;HPM_P2
2023/02/25 00:00:23;;;;;;;5.35;1.80;;;;;;;;;;1050778;28;20078;-54
2023/02/25 00:00:54;;;;;;;4.03;1.87;;;;;;;;;;1050822;28;20120;-53
2023/02/25 00:01:27;;;;;;;6.87;2.00;;;;;;;;;;1050827;28;20285;-54
2023/02/25 00:01:58;;;;;;;5.07;2.13;;;;;;;;;;1051133;28;20266;-53
2023/02/25 00:02:29;;;;;;;4.10;1.77;;;;;;;;;;1051060;28;20023;-53
2023/02/25 00:03:00;;;;;;;5.67;2.27;;;;;;;;;;1051186;28;20266;-52
2023/02/25 00:03:31;;;;;;;7.18;1.90;;;;;;;;;;1051300;28;20261;-53
2023/02/25 00:04:02;;;;;;;4.65;1.63;;;;;;;;;;1051005;28;20077;-53
2023/02/25 00:04:33;;;;;;;4.65;2.00;;;;;;;;;;1051065;28;20480;-52
2023/02/25 00:05:06;;;;;;;5.18;1.65;;;;;;;;;;1051402;28;20411;-53
2023/02/25 00:05:39;;;;;;;5.47;2.10;;;;;;;;;;1051121;28;20103;-53
2023/02/25 00:06:12;;;;;;;10.23;1.90;;;;;;;;;;1051286;28;20170;-53
2023/02/25 00:06:44;;;;;;;5.63;2.10;;;;;;;;;;1050679;28;20568;-52
2023/02/25 00:07:15;;;;;;;6.50;2.05;;;;;;;;;;1051487;28;20016;-53
2023/02/25 00:07:46;;;;;;;4.25;1.45;;;;;;;;;;1051404;28;20020;-52
2023/02/25 00:08:17;;;;;;;6.55;2.10;;;;;;;;;;1051441;28;20016;-52
2023/02/25 00:08:48;;;;;;;3.63;1.63;;;;;;;;;;1051440;28;20102;-52
2023/02/25 00:09:19;;;;;;;4.10;1.60;;;;;;;;;;1051243;28;20777;-52
2023/02/25 00:09:50;;;;;;;3.72;1.75;;;;;;;;;;1051363;28;20696;-52
2023/02/25 00:10:21;;;;;;;4.93;1.77;;;;;;;;;;1047001;28;20084;-54
2023/02/25 00:11:02;;;;;;;6.95;2.35;;;;;;;;;;1045531;28;20051;-54
2023/02/25 00:11:32;;;;;;;4.57;2.17;;;;;;;;;;1038478;28;20037;-53
2023/02/25 00:12:04;;;;;;;4.30;1.70;;;;;;;;;;1038654;28;20108;-53
2023/02/25 00:12:35;;;;;;;7.78;2.55;;;;;;;;;;1039824;28;20741;-53
2023/02/25 00:13:06;;;;;;;6.72;2.15;;;;;;;;;;1042892;28;20758;-53
2023/02/25 00:13:39;;;;;;;6.00;2.20;;;;;;;;;;1042979;28;20127;-54
2023/02/25 00:14:10;;;;;;;7.75;2.00;;;;;;;;;;1043104;28;20347;-53
2023/02/25 00:14:41;;;;;;;5.55;2.40;;;;;;;;;;1042929;28;20013;-53
2023/02/25 00:15:12;;;;;;;4.37;1.97;;;;;;;;;;1043210;28;20017;-54
2023/02/25 00:15:43;;;;;;;6.32;1.90;;;;;;;;;;1043049;28;20255;-54
2023/02/25 00:16:14;;;;;;;7.72;2.20;;;;;;;;;;1043083;28;20013;-54
2023/02/25 00:16:45;;;;;;;6.20;2.25;;;;;;;;;;1043013;28;20027;-54
2023/02/25 00:17:16;;;;;;;5.22;2.00;;;;;;;;;;1043039;28;20009;-53
2023/02/25 00:17:48;;;;;;;6.72;2.50;;;;;;;;;;1043037;28;20150;-54
2023/02/25 00:18:19;;;;;;;6.40;2.38;;;;;;;;;;1043052;28;20017;-53
2023/02/25 00:18:54;;;;;;;5.80;1.70;;;;;;;;;;1043218;28;20017;-54
2023/02/25 00:19:25;;;;;;;6.68;2.08;;;;;;;;;;1043018;28;20674;-52
2023/02/25 00:19:56;;;;;;;4.80;1.73;;;;;;;;;;1043145;28;20032;-53
2023/02/25 00:20:27;;;;;;;6.13;2.33;;;;;;;;;;1043175;28;20020;-53
2023/02/25 00:20:59;;;;;;;5.43;2.03;;;;;;;;;;1042351;28;20405;-55
2023/02/25 00:21:30;;;;;;;6.25;2.10;;;;;;;;;;1041354;28;20025;-55
2023/02/25 00:22:01;;;;;;;5.10;2.00;;;;;;;;;;1038981;28;20092;-54
2023/02/25 00:22:34;;;;;;;6.65;2.03;;;;;;;;;;1038847;28;20018;-54
2023/02/25 00:23:05;;;;;;;5.70;2.35;;;;;;;;;;1042799;28;20075;-54
2023/02/25 00:23:36;;;;;;;4.82;2.05;;;;;;;;;;1043117;28;20070;-54
2023/02/25 00:24:07;;;;;;;4.30;1.85;;;;;;;;;;1043035;28;20379;-54
2023/02/25 00:24:38;;;;;;;6.05;2.10;;;;;;;;;;1042801;28;20094;-54
2023/02/25 00:25:09;;;;;;;6.15;2.40;;;;;;;;;;1043292;28;20074;-53
2023/02/25 00:25:40;;;;;;;4.05;1.77;;;;;;;;;;1042865;28;20021;-53
2023/02/25 00:26:11;;;;;;;10.30;2.23;;;;;;;;;;1043041;28;20052;-54
2023/02/25 00:26:42;;;;;;;6.45;1.95;;;;;;;;;;1042933;28;20385;-53
2023/02/25 00:27:13;;;;;;;7.20;2.33;;;;;;;;;;1042711;28;20048;-53
2023/02/25 00:27:44;;;;;;;6.40;1.93;;;;;;;;;;1042449;28;20099;-52
2023/02/25 00:28:15;;;;;;;5.63;2.08;;;;;;;;;;1042582;28;20269;-54
2023/02/25 00:28:47;;;;;;;5.07;2.15;;;;;;;;;;1042542;28;20116;-53
2023/02/25 00:29:18;;;;;;;4.28;1.80;;;;;;;;;;1043074;28;20024;-53
2023/02/25 00:29:52;;;;;;;3.70;2.07;;;;;;;;;;1042913;28;20021;-54
2023/02/25 00:30:23;;;;;;;6.05;1.88;;;;;;;;;;1042961;28;20572;-53
2023/02/25 00:30:54;;;;;;;4.80;1.60;;;;;;;;;;1042932;28;20435;-54
2023/02/25 00:31:25;;;;;;;4.40;1.90;;;;;;;;;;1042840;28;20028;-54
2023/02/25 00:31:56;;;;;;;6.72;2.00;;;;;;;;;;1042886;28;20032;-53
2023/02/25 00:32:27;;;;;;;5.50;1.92;;;;;;;;;;1043045;28;20028;-54
2023/02/25 00:32:58;;;;;;;4.88;1.83;;;;;;;;;;1042803;28;20559;-52
2023/02/25 00:33:29;;;;;;;4.40;2.35;;;;;;;;;;1043042;28;20035;-53
2023/02/25 00:34:00;;;;;;;4.82;2.00;;;;;;;;;;1042886;28;20769;-53
2023/02/25 00:34:31;;;;;;;6.05;1.73;;;;;;;;;;1043177;28;20032;-54
2023/02/25 00:35:02;;;;;;;6.72;1.85;;;;;;;;;;1043096;28;20020;-53
2023/02/25 00:35:33;;;;;;;7.28;2.40;;;;;;;;;;1043190;28;20025;-52
2023/02/25 00:36:08;;;;;;;6.75;2.10;;;;;;;;;;1042352;28;20090;-55
2023/02/25 00:36:39;;;;;;;5.10;1.77;;;;;;;;;;1041852;28;20033;-54
2023/02/25 00:37:10;;;;;;;3.00;1.42;;;;;;;;;;1043172;28;20063;-54
2023/02/25 00:37:41;;;;;;;7.10;2.20;;;;;;;;;;1042873;28;20025;-53
2023/02/25 00:38:12;;;;;;;5.38;1.95;;;;;;;;;;1041795;28;20024;-52
2023/02/25 00:38:47;;;;;;;6.72;2.10;;;;;;;;;;1042851;28;20029;-53
2023/02/25 00:39:18;;;;;;;8.20;2.72;;;;;;;;;;1042998;28;20051;-55
2023/02/25 00:39:48;;;;;;;6.25;2.33;;;;;;;;;;1041476;28;20067;-53
2023/02/25 00:40:19;;;;;;;5.73;1.80;;;;;;;;;;1042035;28;20021;-54
2023/02/25 00:40:51;;;;;;;4.53;2.13;;;;;;;;;;1043130;28;20270;-51
2023/02/25 00:41:23;;;;;;;6.45;2.63;;;;;;;;;;1042974;28;20377;-54
2023/02/25 00:41:54;;;;;;;6.50;1.98;;;;;;;;;;1042836;28;20029;-55
2023/02/25 00:42:25;;;;;;;6.60;2.00;;;;;;;;;;1042789;28;20030;-53
2023/02/25 00:42:56;;;;;;;5.55;2.45;;;;;;;;;;1042828;28;20809;-53
2023/02/25 00:43:29;;;;;;;7.90;2.10;;;;;;;;;;1042964;28;20113;-52
2023/02/25 00:44:01;;;;;;;5.15;1.90;;;;;;;;;;1042911;28;20306;-53
2023/02/25 00:44:32;;;;;;;4.60;2.05;;;;;;;;;;1042980;28;20036;-53
2023/02/25 00:45:03;;;;;;;5.53;1.70;;;;;;;;;;1042972;28;20024;-53
2023/02/25 00:45:34;;;;;;;5.80;2.20;;;;;;;;;;1042848;28;20310;-53
2023/02/25 00:46:05;;;;;;;5.43;1.98;;;;;;;;;;1043053;28;20552;-51
2023/02/25 00:46:36;;;;;;;6.47;1.95;;;;;;;;;;1042847;28;20728;-53
2023/02/25 00:47:07;;;;;;;3.13;1.57;;;;;;;;;;1043047;28;20029;-54
2023/02/25 00:47:38;;;;;;;5.87;2.13;;;;;;;;;;1042814;28;20676;-53
2023/02/25 00:48:09;;;;;;;6.43;2.00;;;;;;;;;;1043034;28;20740;-53
2023/02/25 00:48:41;;;;;;;6.63;1.90;;;;;;;;;;1042736;28;20468;-51
2023/02/25 00:49:11;;;;;;;4.05;2.20;;;;;;;;;;1043135;28;20266;-55
2023/02/25 00:49:44;;;;;;;5.75;2.33;;;;;;;;;;1042741;28;20086;-53
2023/02/25 00:50:16;;;;;;;3.97;1.98;;;;;;;;;;1042933;28;20133;-53
2023/02/25 00:50:47;;;;;;;8.43;1.95;;;;;;;;;;1042727;28;20028;-53
2023/02/25 00:51:20;;;;;;;4.63;2.07;;;;;;;;;;1042857;28;20749;-53
2023/02/25 00:51:51;;;;;;;6.13;2.13;;;;;;;;;;1042978;28;20263;-53
2023/02/25 00:52:22;;;;;;;4.10;1.55;;;;;;;;;;1042822;28;20033;-53
2023/02/25 00:52:53;;;;;;;4.10;1.88;;;;;;;;;;1042334;28;20024;-53
2023/02/25 00:53:24;;;;;;;4.00;1.90;;;;;;;;;;1042879;28;20036;-55
2023/02/25 00:53:55;;;;;;;5.65;2.20;;;;;;;;;;1042810;28;20032;-54
2023/02/25 00:54:26;;;;;;;5.47;2.00;;;;;;;;;;1043125;28;20029;-54
2023/02/25 00:54:57;;;;;;;3.88;1.63;;;;;;;;;;1042708;28;20021;-54
2023/02/25 00:55:32;;;;;;;5.53;1.80;;;;;;;;;;1042570;28;20013;-53
2023/02/25 00:56:03;;;;;;;5.07;2.20;;;;;;;;;;1042503;28;21173;-54
2023/02/25 00:56:35;;;;;;;8.10;2.10;;;;;;;;;;1038598;28;20408;-53
2023/02/25 00:57:06;;;;;;;3.90;1.50;;;;;;;;;;1039458;28;20067;-54
2023/02/25 00:57:37;;;;;;;8.20;2.20;;;;;;;;;;1042574;28;20036;-55
2023/02/25 00:58:07;;;;;;;4.75;1.55;;;;;;;;;;1042211;28;20508;-53
2023/02/25 00:58:38;;;;;;;5.43;1.85;;;;;;;;;;1038775;28;20013;-53
2023/02/25 00:59:09;;;;;;;6.53;2.25;;;;;;;;;;1041732;28;20742;-53
2023/02/25 00:59:40;;;;;;;3.40;1.40;;;;;;;;;;1042999;28;20071;-53
2023/02/25 01:00:14;;;;;;;5.22;1.63;;;;;;;;;;1042884;28;20263;-55
2023/02/25 01:00:45;;;;;;;3.65;1.70;;;;;;;;;;1042968;28;20479;-54
2023/02/25 01:01:27;;;;;;;6.50;1.80;;;;;;;;;;1042976;28;20463;-53
2023/02/25 01:01:58;;;;;;;4.35;1.92;;;;;;;;;;1042868;28;20266;-54
2023/02/25 01:02:29;;;;;;;5.40;1.90;;;;;;;;;;1042992;28;20092;-53
2023/02/25 01:03:00;;;;;;;6.68;2.10;;;;;;;;;;1042772;28;20736;-53
2023/02/25 01:03:31;;;;;;;5.05;1.95;;;;;;;;;;1042993;28;20017;-52
2023/02/25 01:04:02;;;;;;;5.63;2.22;;;;;;;;;;1042739;28;20024;-52
2023/02/25 01:04:33;;;;;;;6.20;1.92;;;;;;;;;;1042857;28;20025;-54
2023/02/25 01:05:04;;;;;;;6.00;2.08;;;;;;;;;;1042886;28;20213;-54
2023/02/25 01:05:40;;;;;;;4.88;1.50;;;;;;;;;;1042918;28;20028;-54
2023/02/25 01:06:11;;;;;;;6.75;1.58;;;;;;;;;;1041951;28;20025;-53
2023/02/25 01:06:42;;;;;;;5.43;1.90;;;;;;;;;;1042184;28;20032;-53
2023/02/25 01:07:14;;;;;;;4.40;1.63;;;;;;;;;;1042605;28;20040;-53
2023/02/25 01:07:44;;;;;;;5.88;1.98;;;;;;;;;;1041702;28;20041;-55
2023/02/25 01:08:19;;;;;;;5.75;1.92;;;;;;;;;;1042865;28;20021;-53
2023/02/25 01:08:50;;;;;;;8.52;2.10;;;;;;;;;;1043029;28;20017;-55
2023/02/25 01:09:21;;;;;;;5.43;1.77;;;;;;;;;;1042760;28;20025;-52
2023/02/25 01:09:55;;;;;;;7.20;2.10;;;;;;;;;;1042916;28;20060;-53
2023/02/25 01:10:27;;;;;;;4.75;1.50;;;;;;;;;;1042820;28;20092;-54
2023/02/25 01:10:58;;;;;;;3.88;1.60;;;;;;;;;;1042825;28;20092;-54
2023/02/25 01:11:31;;;;;;;6.72;2.25;;;;;;;;;;1042942;28;20422;-54
2023/02/25 01:12:02;;;;;;;4.47;1.30;;;;;;;;;;1042874;28;20491;-51
2023/02/25 01:12:33;;;;;;;5.25;1.88;;;;;;;;;;1042694;28;20033;-53
2023/02/25 01:13:04;;;;;;;4.88;1.83;;;;;;;;;;1042925;28;20834;-54
2023/02/25 01:13:35;;;;;;;5.32;1.63;;;;;;;;;;1042814;28;21143;-54
2023/02/25 01:14:07;;;;;;;3.80;1.50;;;;;;;;;;1042774;28;20075;-55
2023/02/25 01:14:38;;;;;;;2.97;1.40;;;;;;;;;;1038610;28;20033;-52
2023/02/25 01:15:10;;;;;;;4.32;1.73;;;;;;;;;;1038959;28;20029;-54
2023/02/25 01:15:41;;;;;;;3.92;1.40;;;;;;;;;;1039801;28;20495;-54
2023/02/25 01:16:13;;;;;;;4.45;1.80;;;;;;;;;;1042854;28;20456;-54
2023/02/25 01:16:44;;;;;;;3.63;1.42;;;;;;;;;;1042317;28;20163;-54
2023/02/25 01:17:15;;;;;;;4.43;1.90;;;;;;;;;;1042653;28;20032;-53
2023/02/25 01:17:46;;;;;;;4.00;1.38;;;;;;;;;;1042377;28;20047;-54
2023/02/25 01:18:19;;;;;;;5.65;1.80;;;;;;;;;;1042519;28;20055;-53
2023/02/25 01:18:54;;;;;;;6.00;1.90;;;;;;;;;;1042784;28;20028;-53
2023/02/25 01:19:25;;;;;;;6.53;1.75;;;;;;;;;;1042917;28;20403;-55
2023/02/25 01:19:56;;;;;;;5.97;1.63;;;;;;;;;;1042660;28;20033;-53
2023/02/25 01:20:28;;;;;;;5.55;1.58;;;;;;;;;;1043101;28;20025;-54
2023/02/25 01:20:59;;;;;;;6.75;1.50;;;;;;;;;;1042152;28;20028;-52
2023/02/25 01:21:32;;;;;;;5.53;1.73;;;;;;;;;;1043048;28;20029;-54
2023/02/25 01:22:03;;;;;;;5.80;1.65;;;;;;;;;;1042720;28;20271;-52
2023/02/25 01:22:34;;;;;;;4.55;1.63;;;;;;;;;;1042399;28;20028;-54
2023/02/25 01:23:05;;;;;;;6.20;1.57;;;;;;;;;;1042548;28;20032;-55
2023/02/25 01:23:36;;;;;;;4.30;1.33;;;;;;;;;;1043027;28;20263;-54
2023/02/25 01:24:10;;;;;;;5.25;1.77;;;;;;;;;;1042741;28;20036;-53
2023/02/25 01:24:41;;;;;;;3.88;1.85;;;;;;;;;;1042708;28;20039;-53
2023/02/25 01:25:15;;;;;;;6.88;2.20;;;;;;;;;;1042794;28;20036;-53
2023/02/25 01:25:46;;;;;;;4.05;1.63;;;;;;;;;;1042860;28;20139;-55
2023/02/25 01:26:17;;;;;;;4.47;1.70;;;;;;;;;;1042290;28;20059;-54
2023/02/25 01:26:48;;;;;;;4.83;1.90;;;;;;;;;;1042752;28;20268;-54
2023/02/25 01:27:19;;;;;;;4.90;1.50;;;;;;;;;;1042274;28;20263;-53
2023/02/25 01:27:57;;;;;;;3.85;1.55;;;;;;;;;;1041488;28;20428;-53
2023/02/25 01:28:28;;;;;;;3.90;1.80;;;;;;;;;;1039544;28;20025;-53
2023/02/25 01:28:59;;;;;;;3.42;1.45;;;;;;;;;;1042666;28;20098;-53
2023/02/25 01:29:31;;;;;;;4.13;1.50;;;;;;;;;;1042544;28;20053;-53
2023/02/25 01:30:02;;;;;;;6.45;1.77;;;;;;;;;;1042440;28;20028;-53
2023/02/25 01:30:36;;;;;;;4.30;1.30;;;;;;;;;;1042584;28;20028;-52
2023/02/25 01:31:07;;;;;;;6.43;1.85;;;;;;;;;;1042738;28;20059;-54
2023/02/25 01:31:38;;;;;;;4.30;1.55;;;;;;;;;;1042489;28;20120;-54
2023/02/25 01:32:12;;;;;;;4.57;1.52;;;;;;;;;;1042626;28;20425;-55
2023/02/25 01:32:43;;;;;;;4.95;1.50;;;;;;;;;;1042464;28;20039;-52
2023/02/25 01:33:14;;;;;;;5.00;1.38;;;;;;;;;;1042279;28;20025;-54
2023/02/25 01:33:45;;;;;;;5.83;1.60;;;;;;;;;;1042571;28;20021;-53
2023/02/25 01:34:17;;;;;;;4.55;1.52;;;;;;;;;;1042454;28;20255;-53
2023/02/25 01:34:48;;;;;;;5.40;1.45;;;;;;;;;;1042472;28;20013;-54
2023/02/25 01:35:19;;;;;;;4.43;1.60;;;;;;;;;;1042578;28;20103;-53
2023/02/25 01:35:49;;;;;;;4.43;1.58;;;;;;;;;;1042568;28;20048;-54
2023/02/25 01:36:20;;;;;;;3.63;1.55;;;;;;;;;;1042224;28;20703;-55
2023/02/25 01:36:52;;;;;;;5.97;1.52;;;;;;;;;;1038566;28;20017;-54
2023/02/25 01:37:23;;;;;;;2.92;1.23;;;;;;;;;;1041980;28;20013;-54
2023/02/25 01:37:54;;;;;;;4.63;1.43;;;;;;;;;;1042673;28;20029;-54
2023/02/25 01:38:26;;;;;;;4.55;1.50;;;;;;;;;;1042441;28;20928;-54
2023/02/25 01:38:57;;;;;;;6.43;2.10;;;;;;;;;;1042529;28;20032;-53
2023/02/25 01:39:28;;;;;;;5.10;1.45;;;;;;;;;;1042815;28;20048;-54
2023/02/25 01:39:59;;;;;;;3.30;1.52;;;;;;;;;;1042494;28;20017;-54
2023/02/25 01:40:30;;;;;;;3.85;1.77;;;;;;;;;;1042569;28;20096;-54
2023/02/25 01:41:02;;;;;;;3.10;1.25;;;;;;;;;;1042425;28;20098;-54
2023/02/25 01:41:33;;;;;;;3.50;1.75;;;;;;;;;;1042716;28;20027;-54
2023/02/25 01:42:11;;;;;;;5.63;1.63;;;;;;;;;;1042252;28;20017;-53
2023/02/25 01:42:43;;;;;;;4.50;1.63;;;;;;;;;;1042533;28;20009;-54
2023/02/25 01:43:15;;;;;;;3.53;1.30;;;;;;;;;;1042576;28;20106;-51
2023/02/25 01:44:02;;;;;;;6.28;1.85;;;;;;;;;;1042400;28;20102;-53
2023/02/25 01:44:34;;;;;;;6.47;2.00;;;;;;;;;;1042683;28;20017;-54
2023/02/25 01:45:20;;;;;;;4.90;1.65;;;;;;;;;;1042633;28;20013;-53
2023/02/25 01:45:53;;;;;;;5.85;1.65;;;;;;;;;;1038508;28;20045;-52
2023/02/25 01:46:24;;;;;;;4.88;1.27;;;;;;;;;;1038445;28;20523;-54
2023/02/25 01:46:55;;;;;;;4.45;1.30;;;;;;;;;;1038405;28;20457;-54
2023/02/25 01:47:35;;;;;;;5.07;1.85;;;;;;;;;;1042616;28;20156;-53
2023/02/25 01:48:11;;;;;;;3.90;1.55;;;;;;;;;;1042517;28;20017;-53
2023/02/25 01:48:42;;;;;;;4.60;1.70;;;;;;;;;;1041746;28;20014;-53
2023/02/25 01:49:33;;;;;;;7.45;1.95;;;;;;;;;;1042305;28;20091;-53
2023/02/25 01:50:05;;;;;;;5.38;1.88;;;;;;;;;;1042230;28;20039;-54
2023/02/25 01:50:39;;;;;;;4.88;1.40;;;;;;;;;;1042368;28;20030;-54
2023/02/25 01:51:14;;;;;;;4.28;1.23;;;;;;;;;;1042363;28;20048;-55
2023/02/25 01:51:48;;;;;;;6.53;1.80;;;;;;;;;;1042049;28;20428;-54
2023/02/25 01:52:23;;;;;;;4.50;1.38;;;;;;;;;;1042307;28;20143;-54
2023/02/25 01:52:56;;;;;;;3.47;1.30;;;;;;;;;;1042615;28;20199;-55
2023/02/25 01:53:29;;;;;;;5.65;1.92;;;;;;;;;;1042443;28;20103;-52
2023/02/25 01:54:01;;;;;;;6.22;1.85;;;;;;;;;;1041290;28;20047;-53
2023/02/25 01:54:33;;;;;;;3.22;1.42;;;;;;;;;;1038633;28;20052;-54
2023/02/25 01:55:04;;;;;;;4.85;1.80;;;;;;;;;;1038497;28;20412;-55
2023/02/25 01:55:35;;;;;;;3.63;1.55;;;;;;;;;;1039721;28;20076;-55
2023/02/25 01:56:07;;;;;;;4.47;1.65;;;;;;;;;;1042654;28;20480;-52
2023/02/25 01:56:40;;;;;;;5.63;1.73;;;;;;;;;;1042701;28;20021;-54
2023/02/25 01:57:12;;;;;;;3.90;1.17;;;;;;;;;;1042813;28;20052;-54
2023/02/25 01:57:43;;;;;;;5.05;1.75;;;;;;;;;;1042401;28;20036;-54
2023/02/25 01:58:15;;;;;;;4.78;1.58;;;;;;;;;;1042724;28;20453;-54
2023/02/25 01:58:47;;;;;;;4.65;1.95;;;;;;;;;;1041281;28;20080;-52
2023/02/25 01:59:19;;;;;;;4.95;1.58;;;;;;;;;;1042842;28;20091;-53
2023/02/25 01:59:51;;;;;;;5.30;1.60;;;;;;;;;;1042865;28;20369;-52
2023/02/25 02:00:22;;;;;;;5.45;1.80;;;;;;;;;;1042626;28;20028;-55
2023/02/25 02:00:54;;;;;;;4.57;1.50;;;;;;;;;;1042808;28;20036;-54
2023/02/25 02:01:26;;;;;;;6.05;1.65;;;;;;;;;;1043039;28;20086;-51
2023/02/25 02:01:57;;;;;;;5.03;1.52;;;;;;;;;;1042774;28;20025;-54
2023/02/25 02:02:32;;;;;;;5.88;1.85;;;;;;;;;;1042866;28;20480;-54
2023/02/25 02:03:04;;;;;;;4.18;1.55;;;;;;;;;;1038747;28;20025;-53
2023/02/25 02:03:35;;;;;;;3.53;1.42;;;;;;;;;;1038825;28;20380;-53
2023/02/25 02:04:07;;;;;;;5.38;1.73;;;;;;;;;;1038629;28;20063;-55
2023/02/25 02:04:39;;;;;;;4.80;1.70;;;;;;;;;;1042343;28;20021;-54
2023/02/25 02:05:11;;;;;;;5.20;2.00;;;;;;;;;;1042835;28;20047;-55
2023/02/25 02:05:47;;;;;;;6.65;1.88;;;;;;;;;;1042895;28;20047;-54
2023/02/25 02:06:31;;;;;;;8.85;1.63;;;;;;;;;;1042584;28;20039;-54
2023/02/25 02:07:03;;;;;;;4.40;1.63;;;;;;;;;;1040737;28;20143;-55
2023/02/25 02:07:33;;;;;;;3.80;1.50;;;;;;;;;;1042916;28;20035;-55
2023/02/25 02:08:05;;;;;;;5.88;1.80;;;;;;;;;;1042627;28;20025;-54
2023/02/25 02:08:36;;;;;;;4.05;1.65;;;;;;;;;;1042528;28;20033;-53
2023/02/25 02:09:09;;;;;;;5.72;1.80;;;;;;;;;;1042760;28;20033;-53
2023/02/25 02:09:52;;;;;;;6.68;1.85;;;;;;;;;;1042724;28;20592;-54
2023/02/25 02:10:23;;;;;;;5.95;2.08;;;;;;;;;;1050372;28;20055;-55
2023/02/25 02:10:55;;;;;;;6.95;1.73;;;;;;;;;;1051239;28;20469;-54
2023/02/25 02:11:26;;;;;;;4.45;1.95;;;;;;;;;;1051156;28;20024;-55
2023/02/25 02:11:59;;;;;;;4.93;1.50;;;;;;;;;;1050934;28;20111;-55
2023/02/25 02:12:35;;;;;;;5.32;1.85;;;;;;;;;;1051034;28;20028;-53
2023/02/25 02:13:06;;;;;;;5.63;1.50;;;;;;;;;;1051135;28;20335;-54
2023/02/25 02:13:42;;;;;;;4.72;1.73;;;;;;;;;;1050776;28;20686;-53
2023/02/25 02:14:15;;;;;;;6.93;1.83;;;;;;;;;;1051186;28;20758;-53
2023/02/25 02:14:46;;;;;;;5.57;1.65;;;;;;;;;;1050992;28;20024;-53
2023/02/25 02:15:17;;;;;;;4.23;1.83;;;;;;;;;;1050996;28;20028;-55
2023/02/25 02:16:03;;;;;;;6.30;1.98;;;;;;;;;;1049090;28;20916;-53
2023/02/25 02:16:43;;;;;;;5.60;1.85;;;;;;;;;;1051124;28;20030;-54
2023/02/25 02:17:19;;;;;;;3.45;1.80;;;;;;;;;;1051071;28;20031;-54
2023/02/25 02:17:50;;;;;;;5.45;1.67;;;;;;;;;;1051574;28;20043;-54
2023/02/25 02:18:21;;;;;;;6.07;2.00;;;;;;;;;;1051782;28;20043;-53
2023/02/25 02:18:57;;;;;;;3.97;1.67;;;;;;;;;;1051623;28;20266;-53
2023/02/25 02:19:35;;;;;;;5.75;2.03;;;;;;;;;;1052004;28;20152;-51
2023/02/25 02:20:30;;;;;;;4.68;1.38;;;;;;;;;;1051915;28;20085;-54
2023/02/25 02:21:19;;;;;;;5.13;1.45;;;;;;;;;;1040683;28;20034;-55
2023/02/25 02:21:59;;;;;;;4.63;1.70;;;;;;;;;;1047777;28;20463;-54
2023/02/25 02:22:50;;;;;;;5.28;1.58;;;;;;;;;;1051102;28;20020;-55
2023/02/25 02:23:34;;;;;;;4.57;1.73;;;;;;;;;;1050856;28;20212;-54
2023/02/25 02:24:11;;;;;;;5.47;1.90;;;;;;;;;;1049856;28;20031;-54
2023/02/25 02:24:55;;;;;;;6.82;1.48;;;;;;;;;;1051727;28;20024;-51
2023/02/25 02:25:31;;;;;;;6.53;1.92;;;;;;;;;;1051895;28;20016;-54
2023/02/25 02:26:17;;;;;;;5.25;1.77;;;;;;;;;;1047625;28;20024;-55
2023/02/25 02:26:51;;;;;;;4.10;1.77;;;;;;;;;;1047801;28;20020;-53
2023/02/25 02:27:28;;;;;;;5.38;2.13;;;;;;;;;;1048894;28;20027;-51
2023/02/25 02:28:18;;;;;;;6.20;2.00;;;;;;;;;;1051822;28;20051;-53
2023/02/25 02:28:49;;;;;;;4.80;1.58;;;;;;;;;;1047717;28;20029;-54
2023/02/25 02:29:45;;;;;;;6.20;1.92;;;;;;;;;;1051195;28;20024;-54
2023/02/25 02:30:35;;;;;;;4.25;1.33;;;;;;;;;;1051790;28;20054;-54
2023/02/25 02:31:20;;;;;;;5.35;1.90;;;;;;;;;;1051868;28;20032;-54
2023/02/25 02:31:55;;;;;;;3.45;1.67;;;;;;;;;;1051963;28;20028;-54
2023/02/25 02:32:41;;;;;;;4.43;1.60;;;;;;;;;;1051368;28;20024;-52
2023/02/25 02:33:15;;;;;;;3.78;1.50;;;;;;;;;;1047603;28;20021;-53
2023/02/25 02:33:52;;;;;;;4.18;1.60;;;;;;;;;;1047620;28;20103;-53
2023/02/25 02:34:39;;;;;;;7.10;2.13;;;;;;;;;;1050123;28;20013;-53
2023/02/25 02:35:13;;;;;;;8.07;2.55;;;;;;;;;;1051890;28;20417;-51
2023/02/25 02:35:44;;;;;;;4.32;1.70;;;;;;;;;;1051755;28;20023;-54
2023/02/25 02:36:15;;;;;;;5.90;1.77;;;;;;;;;;1051594;28;20021;-53
2023/02/25 02:36:55;;;;;;;7.37;2.07;;;;;;;;;;1051767;28;20288;-54
2023/02/25 02:37:34;;;;;;;5.57;1.90;;;;;;;;;;1051929;28;20325;-54
2023/02/25 02:38:07;;;;;;;4.80;1.58;;;;;;;;;;1051091;28;20019;-54
2023/02/25 02:39:02;;;;;;;3.42;1.30;;;;;;;;;;1051746;28;20043;-54
2023/02/25 02:39:46;;;;;;;5.13;1.70;;;;;;;;;;1051858;28;20658;-53
2023/02/25 02:40:33;;;;;;;4.18;1.70;;;;;;;;;;1051687;28;20076;-52
2023/02/25 02:41:17;;;;;;;6.50;1.83;;;;;;;;;;1051726;28;20040;-54
2023/02/25 02:41:54;;;;;;;6.43;1.92;;;;;;;;;;1052003;28;20016;-53
2023/02/25 02:42:51;;;;;;;6.05;1.73;;;;;;;;;;1051833;28;20017;-54
2023/02/25 02:43:34;;;;;;;3.75;1.60;;;;;;;;;;1034465;28;20048;-54
2023/02/25 02:44:06;;;;;;;6.50;1.73;;;;;;;;;;1042308;28;20021;-52
2023/02/25 02:44:42;;;;;;;3.78;1.50;;;;;;;;;;1050486;28;20077;-54
2023/02/25 02:45:20;;;;;;;5.82;1.63;;;;;;;;;;1051850;28;20017;-53
2023/02/25 02:45:58;;;;;;;6.25;1.70;;;;;;;;;;1051858;28;20043;-55
2023/02/25 02:46:35;;;;;;;6.55;1.90;;;;;;;;;;1051491;28;20016;-54
2023/02/25 02:47:08;;;;;;;7.13;1.90;;;;;;;;;;1051558;28;20390;-53
2023/02/25 02:47:48;;;;;;;4.43;1.90;;;;;;;;;;1051351;28;20027;-54
2023/02/25 02:48:42;;;;;;;5.45;1.95;;;;;;;;;;1047396;28;20023;-54
2023/02/25 02:49:17;;;;;;;6.05;1.55;;;;;;;;;;1034560;28;20014;-54
2023/02/25 02:49:51;;;;;;;5.03;1.80;;;;;;;;;;1034665;28;20485;-53
2023/02/25 02:50:33;;;;;;;4.63;1.77;;;;;;;;;;1047424;28;20099;-54
2023/02/25 02:51:10;;;;;;;5.50;1.65;;;;;;;;;;1047376;28;20016;-54
2023/02/25 02:51:45;;;;;;;6.30;1.95;;;;;;;;;;1047455;28;20092;-54
2023/02/25 02:52:18;;;;;;;3.97;1.73;;;;;;;;;;1047480;28;20013;-55
2023/02/25 02:52:51;;;;;;;5.55;2.00;;;;;;;;;;1048040;28;20615;-54
2023/02/25 02:53:29;;;;;;;6.45;2.00;;;;;;;;;;1051568;28;20020;-51
2023/02/25 02:54:03;;;;;;;4.95;1.60;;;;;;;;;;1051708;28;20519;-55
2023/02/25 02:54:35;;;;;;;8.00;1.92;;;;;;;;;;1050355;28;20514;-55
2023/02/25 02:55:09;;;;;;;6.68;1.77;;;;;;;;;;1047315;28;20016;-55
2023/02/25 02:55:43;;;;;;;7.28;2.08;;;;;;;;;;1047101;28;20112;-53
2023/02/25 02:56:16;;;;;;;3.40;1.65;;;;;;;;;;1047892;28;20066;-53
2023/02/25 02:56:50;;;;;;;4.70;1.90;;;;;;;;;;1051039;28;20016;-54
2023/02/25 02:57:22;;;;;;;6.55;1.65;;;;;;;;;;1051743;28;20017;-55
2023/02/25 02:58:19;;;;;;;5.95;2.13;;;;;;;;;;1051647;28;20137;-54
2023/02/25 02:58:58;;;;;;;5.60;1.75;;;;;;;;;;1044602;28;20085;-54
2023/02/25 02:59:34;;;;;;;6.63;1.75;;;;;;;;;;1047638;28;20146;-54
2023/02/25 03:00:12;;;;;;;5.85;1.90;;;;;;;;;;1047462;28;20028;-54
2023/02/25 03:00:46;;;;;;;4.82;1.60;;;;;;;;;;1047599;28;20037;-53
2023/02/25 03:01:18;;;;;;;6.60;1.92;;;;;;;;;;1047321;28;20027;-54
2023/02/25 03:01:52;;;;;;;5.78;1.60;;;;;;;;;;1051657;28;20484;-53
2023/02/25 03:02:31;;;;;;;5.45;1.98;;;;;;;;;;1051707;28;20027;-54
2023/02/25 03:03:06;;;;;;;5.53;1.58;;;;;;;;;;1051395;28;20016;-54
2023/02/25 03:03:42;;;;;;;6.28;2.20;;;;;;;;;;1051221;28;20020;-51
2023/02/25 03:04:16;;;;;;;5.57;2.00;;;;;;;;;;1051342;28;20016;-54
2023/02/25 03:04:48;;;;;;;5.18;1.50;;;;;;;;;;1050388;28;20012;-55
2023/02/25 03:05:20;;;;;;;5.40;1.98;;;;;;;;;;1047219;28;20021;-54
2023/02/25 03:05:52;;;;;;;5.05;1.80;;;;;;;;;;1047475;28;20034;-54
2023/02/25 03:06:25;;;;;;;3.92;1.48;;;;;;;;;;1048390;28;20083;-53
2023/02/25 03:07:01;;;;;;;5.65;1.40;;;;;;;;;;1051446;28;20046;-53
2023/02/25 03:07:33;;;;;;;4.47;2.17;;;;;;;;;;1051658;28;20042;-53
2023/02/25 03:08:07;;;;;;;5.93;1.75;;;;;;;;;;1051680;28;20013;-54
2023/02/25 03:08:49;;;;;;;7.65;1.88;;;;;;;;;;1051497;28;20020;-54
2023/02/25 03:09:35;;;;;;;6.07;1.80;;;;;;;;;;1051490;28;20089;-55
2023/02/25 03:10:07;;;;;;;4.47;1.90;;;;;;;;;;1051543;28;20020;-55
2023/02/25 03:10:38;;;;;;;7.15;2.42;;;;;;;;;;1051562;28;20110;-54
2023/02/25 03:11:09;;;;;;;6.85;1.90;;;;;;;;;;1051859;28;20016;-53
2023/02/25 03:11:40;;;;;;;5.28;1.88;;;;;;;;;;1050903;28;20012;-55
2023/02/25 03:12:11;;;;;;;5.43;1.83;;;;;;;;;;1051820;28;20024;-55
2023/02/25 03:12:42;;;;;;;4.30;1.70;;;;;;;;;;1051512;28;20024;-53
2023/02/25 03:13:14;;;;;;;5.63;2.08;;;;;;;;;;1051842;28;20020;-54
2023/02/25 03:13:45;;;;;;;4.80;1.80;;;;;;;;;;1051425;28;20032;-53
2023/02/25 03:14:16;;;;;;;6.00;1.98;;;;;;;;;;1051606;28;20023;-54
2023/02/25 03:14:47;;;;;;;4.93;2.08;;;;;;;;;;1051753;28;20016;-54
2023/02/25 03:15:18;;;;;;;5.15;1.98;;;;;;;;;;1051548;28;20062;-52
2023/02/25 03:15:49;;;;;;;5.60;1.92;;;;;;;;;;1054018;28;20023;-53
2023/02/25 03:16:23;;;;;;;5.93;1.95;;;;;;;;;;1055843;28;20020;-54
2023/02/25 03:17:08;;;;;;;4.85;2.42;;;;;;;;;;1054007;28;20074;-54
2023/02/25 03:17:42;;;;;;;5.00;1.52;;;;;;;;;;1051495;28;20525;-54
2023/02/25 03:18:23;;;;;;;8.45;1.90;;;;;;;;;;1051784;28;20119;-53
2023/02/25 03:18:59;;;;;;;5.95;1.70;;;;;;;;;;1051572;28;20024;-54
2023/02/25 03:19:45;;;;;;;5.25;1.95;;;;;;;;;;1051739;28;20494;-54
2023/02/25 03:20:18;;;;;;;5.55;2.13;;;;;;;;;;1051542;28;20054;-54
2023/02/25 03:20:50;;;;;;;6.15;1.80;;;;;;;;;;1051163;28;20588;-54
2023/02/25 03:21:25;;;;;;;5.10;1.98;;;;;;;;;;1051660;28;20020;-53
2023/02/25 03:22:03;;;;;;;8.35;2.38;;;;;;;;;;1051331;28;20599;-54
2023/02/25 03:22:36;;;;;;;5.00;1.52;;;;;;;;;;1051695;28;20675;-54